Time;durP1;ratioP1;P1;durP2;ratioP2;P2;SDS_P1;SDS_P2;PMS_P1;PMS_P2;Temp;Humidity;BMP_temperature;BMP_pressure;BME280_temperature;BME280_humidity;BME280_pressure;Samples;Min_cycle;Max_cycle;Signal;HPM_P1;HPM_P2
2022/05/10 00:02:32;;;;;;;12.55;3.40;;;;;;;11.69;48.42;100212.59;8198251;29;20047;-71
2022/05/10 00:06:38;;;;;;;10.70;3.53;;;;;;;11.63;48.65;100208.38;8199342;28;20058;-70
2022/05/10 00:10:40;;;;;;;5.70;3.17;;;;;;;11.61;48.61;100205.13;8198593;29;20058;-70
2022/05/10 00:14:40;;;;;;;9.05;3.78;;;;;;;11.58;48.65;100205.72;8200325;28;20043;-70
2022/05/10 00:18:42;;;;;;;8.80;3.55;;;;;;;11.54;48.59;100208.19;8200380;28;20081;-70
2022/05/10 00:22:44;;;;;;;11.60;3.83;;;;;;;11.52;48.56;100193.34;8197322;28;20130;-71
2022/05/10 00:26:45;;;;;;;11.50;4.18;;;;;;;11.51;48.82;100186.31;8198240;29;20521;-71
2022/05/10 00:30:46;;;;;;;10.60;3.35;;;;;;;11.51;48.82;100189.03;8200296;28;20058;-71
2022/05/10 00:34:47;;;;;;;10.77;3.78;;;;;;;11.47;48.69;100188.00;8195346;28;20059;-71
2022/05/10 00:38:48;;;;;;;13.68;4.78;;;;;;;11.43;48.95;100177.75;8148184;29;20143;-70
2022/05/10 00:43:13;;;;;;;10.07;4.00;;;;;;;11.37;49.17;100178.88;8133965;29;20056;-71
2022/05/10 00:47:40;;;;;;;11.07;4.00;;;;;;;11.30;49.09;100178.44;8133530;29;20109;-70
2022/05/10 00:51:47;;;;;;;12.98;3.67;;;;;;;11.27;49.57;100168.19;8124898;29;20137;-71
2022/05/10 00:55:58;;;;;;;9.48;3.42;;;;;;;11.23;49.73;100167.16;8112919;29;20048;-70
2022/05/10 01:00:07;;;;;;;12.85;3.40;;;;;;;11.16;49.92;100155.88;8122926;29;20056;-70
2022/05/10 01:04:26;;;;;;;;;;;;;;;11.15;50.01;100154.28;8116834;29;20072;-70
2022/05/10 01:08:31;;;;;;;10.50;4.07;;;;;;;11.09;50.27;100150.00;8108855;29;19927;-71
2022/05/10 01:12:40;;;;;;;12.23;4.18;;;;;;;11.04;50.83;100150.06;8115398;29;20052;-70
2022/05/10 01:16:41;;;;;;;15.30;3.80;;;;;;;11.00;50.83;100135.50;8130921;29;20079;-70
2022/05/10 01:20:43;;;;;;;12.40;3.90;;;;;;;10.96;50.87;100139.88;8121217;29;20040;-70
2022/05/10 01:25:02;;;;;;;12.88;4.13;;;;;;;10.91;51.15;100137.22;8121927;29;20632;-71
2022/05/10 01:29:06;;;;;;;11.40;4.22;;;;;;;10.88;51.59;100127.00;8189891;28;20052;-70
2022/05/10 01:33:30;;;;;;;8.35;4.10;;;;;;;10.85;51.57;100127.53;8201532;28;20046;-70
2022/05/10 01:37:34;;;;;;;14.05;4.15;;;;;;;10.79;51.71;100123.28;8203477;28;20388;-70
2022/05/10 01:41:48;;;;;;;12.45;4.25;;;;;;;10.76;52.23;100124.66;8205627;28;20054;-70
2022/05/10 01:45:52;;;;;;;14.48;4.55;;;;;;;10.73;52.31;100119.03;8181123;28;20428;-71
2022/05/10 01:50:18;;;;;;;15.10;4.50;;;;;;;10.68;52.56;100117.16;8191063;28;20131;-70
2022/05/10 01:54:41;;;;;;;12.82;4.55;;;;;;;10.57;52.67;100121.84;8204867;28;20546;-71
2022/05/10 01:58:44;;;;;;;10.45;4.40;;;;;;;10.55;52.84;100113.25;8178978;29;20058;-71
2022/05/10 02:02:52;;;;;;;12.57;4.10;;;;;;;10.51;53.00;100116.81;8182892;28;20134;-70
2022/05/10 02:07:00;;;;;;;15.85;4.60;;;;;;;10.46;53.36;100104.16;8179114;29;20487;-71
2022/05/10 02:11:16;;;;;;;14.30;4.32;;;;;;;10.44;53.13;100110.91;8188727;28;20048;-70
2022/05/10 02:15:43;;;;;;;10.23;4.43;;;;;;;10.40;53.36;100110.69;8174980;28;20047;-71
2022/05/10 02:19:53;;;;;;;11.82;4.47;;;;;;;10.36;53.70;100117.75;8150685;29;20044;-71
2022/05/10 02:24:10;;;;;;;10.35;4.28;;;;;;;10.31;53.90;100106.94;8118194;29;20070;-71
2022/05/10 02:28:33;;;;;;;18.45;4.70;;;;;;;10.20;54.71;100110.84;8166006;29;20055;-71
2022/05/10 02:33:07;;;;;;;11.57;4.07;;;;;;;10.15;54.61;100108.16;8164592;29;20443;-71
2022/05/10 02:37:08;;;;;;;11.70;4.97;;;;;;;10.10;54.69;100110.88;8166914;29;20098;-70
2022/05/10 02:41:13;;;;;;;16.73;4.00;;;;;;;10.05;54.77;100108.19;8166198;29;20047;-70
2022/05/10 02:45:18;;;;;;;12.50;4.43;;;;;;;9.99;55.45;100098.56;8148460;29;20055;-70
2022/05/10 02:49:19;;;;;;;12.55;4.13;;;;;;;9.95;55.48;100092.09;8150896;29;20171;-71
2022/05/10 02:53:20;;;;;;;9.32;4.25;;;;;;;9.95;55.66;100097.47;8149690;29;20094;-71
2022/05/10 02:57:23;;;;;;;10.30;4.85;;;;;;;9.87;56.51;100095.38;8197163;28;20138;-70
2022/05/10 03:01:49;;;;;;;8.55;3.97;;;;;;;9.84;55.97;100101.31;8215940;28;20418;-70
2022/05/10 03:05:52;;;;;;;15.75;4.63;;;;;;;9.81;56.04;100085.72;8216319;28;20054;-70
2022/05/10 03:09:53;;;;;;;11.45;4.60;;;;;;;9.82;56.25;100085.44;8199289;29;20134;-70
2022/05/10 03:13:55;;;;;;;16.40;4.88;;;;;;;9.73;56.96;100090.59;8200940;28;20047;-71
2022/05/10 03:17:57;;;;;;;12.45;5.22;;;;;;;9.73;56.63;100090.59;8201367;28;20040;-70
2022/05/10 03:21:58;;;;;;;12.70;4.53;;;;;;;9.71;56.98;100087.38;8201117;28;20463;-70
2022/05/10 03:25:59;;;;;;;15.27;5.05;;;;;;;9.69;57.19;100084.16;8210180;28;20050;-70
2022/05/10 03:30:02;;;;;;;14.38;5.07;;;;;;;9.65;57.63;100093.91;8199252;28;20047;-70
2022/05/10 03:38:24;;;;;;;11.80;4.63;;;;;;;9.62;57.71;100094.44;8185584;29;20048;-71
2022/05/10 03:42:26;;;;;;;16.08;5.15;;;;;;;9.59;58.06;100100.41;8171713;29;20076;-70
2022/05/10 03:46:27;;;;;;;11.63;5.28;;;;;;;9.58;58.30;100098.78;8194746;28;20051;-70
2022/05/10 03:50:28;;;;;;;11.65;4.97;;;;;;;9.61;58.14;100092.84;8184491;28;20056;-71
2022/05/10 03:54:29;;;;;;;13.63;4.80;;;;;;;9.62;58.58;100089.03;8178145;28;20055;-71
2022/05/10 03:58:30;;;;;;;14.13;4.60;;;;;;;9.63;58.60;100098.75;8177551;29;20543;-70
2022/05/10 04:02:31;;;;;;;11.65;5.55;;;;;;;9.66;58.89;100092.81;8184029;28;20412;-71
2022/05/10 04:06:32;;;;;;;24.73;5.88;;;;;;;9.69;59.14;100089.56;8200077;28;20042;-70
2022/05/10 04:10:33;;;;;;;19.90;5.57;;;;;;;9.70;59.25;100082.25;8179730;28;20130;-71
2022/05/10 04:14:34;;;;;;;13.70;5.10;;;;;;;9.74;59.31;100080.63;8204683;28;20050;-70
2022/05/10 04:18:35;;;;;;;13.63;5.13;;;;;;;9.80;59.07;100073.31;8202623;28;20151;-71
2022/05/10 04:22:36;;;;;;;9.82;4.85;;;;;;;9.89;58.78;100071.63;8205335;28;20510;-71
2022/05/10 04:26:37;;;;;;;13.20;4.88;;;;;;;9.92;59.28;100076.47;8217728;28;20055;-70
2022/05/10 04:30:39;;;;;;;12.77;5.30;;;;;;;9.97;59.12;100084.53;8190495;28;20048;-70
2022/05/10 04:34:40;;;;;;;13.93;5.00;;;;;;;10.02;58.98;100081.78;8187988;28;20043;-71
2022/05/10 04:38:44;;;;;;;15.73;5.18;;;;;;;10.11;58.79;100085.50;8172356;29;20107;-72
2022/05/10 04:42:48;;;;;;;15.45;4.90;;;;;;;10.16;59.09;100082.78;8170518;29;20424;-70
2022/05/10 04:46:48;;;;;;;15.98;5.25;;;;;;;10.26;58.85;100088.09;8174776;29;20154;-71
2022/05/10 04:50:50;;;;;;;12.68;4.60;;;;;;;10.31;58.81;100088.06;8192543;29;20058;-71
2022/05/10 04:54:51;;;;;;;11.00;4.82;;;;;;;10.41;58.89;100085.28;8188344;28;20051;-72
2022/05/10 04:58:55;;;;;;;13.38;5.28;;;;;;;10.50;58.59;100088.97;8198859;28;20047;-71
2022/05/10 05:02:56;;;;;;;17.35;5.07;;;;;;;10.53;58.67;100083.00;8173065;28;20048;-71
2022/05/10 05:06:57;;;;;;;16.23;7.47;;;;;;;10.61;59.01;100088.88;8172183;28;20515;-71
2022/05/10 05:10:58;;;;;;;15.38;6.45;;;;;;;10.69;58.79;100085.56;8164598;29;20159;-71
2022/05/10 05:15:05;;;;;;;29.10;6.95;;;;;;;10.78;58.29;100094.66;8177549;29;20074;-71
2022/05/10 05:19:06;;;;;;;17.05;6.65;;;;;;;10.87;58.35;100087.53;8173874;28;20051;-72
2022/05/10 05:23:09;;;;;;;22.00;7.07;;;;;;;10.99;58.17;100090.66;8167803;29;20438;-71
2022/05/10 05:27:10;;;;;;;16.95;5.38;;;;;;;11.10;57.85;100092.16;8214719;28;20059;-72
2022/05/10 05:31:12;;;;;;;15.38;5.22;;;;;;;11.22;57.02;100095.25;8185417;28;20064;-73
2022/05/10 05:35:13;;;;;;;19.77;6.40;;;;;;;11.27;57.10;100097.88;8187817;28;20043;-71
2022/05/10 05:39:14;;;;;;;18.30;6.47;;;;;;;11.37;56.87;100103.16;8173279;29;20051;-71
2022/05/10 05:43:18;;;;;;;17.63;6.13;;;;;;;11.43;56.81;100096.59;8169694;29;20074;-72
2022/05/10 05:47:19;;;;;;;20.38;8.00;;;;;;;11.52;56.95;100099.47;8179719;29;20046;-71
2022/05/10 05:51:20;;;;;;;35.15;8.68;;;;;;;11.61;57.03;100091.50;8166593;29;20064;-71
2022/05/10 05:55:21;;;;;;;19.42;6.57;;;;;;;11.71;56.73;100097.59;8166872;29;20111;-71
2022/05/10 05:59:22;;;;;;;25.70;8.05;;;;;;;11.79;57.02;100093.47;8208208;28;20052;-71
2022/05/10 06:03:23;;;;;;;32.55;10.45;;;;;;;11.88;56.66;100089.00;8198528;28;20459;-72
2022/05/10 06:07:24;;;;;;;26.73;7.82;;;;;;;11.96;56.87;100088.31;8203482;28;20063;-72
2022/05/10 06:11:25;;;;;;;23.20;8.48;;;;;;;12.10;57.09;100089.19;8204349;28;20051;-71
2022/05/10 06:15:26;;;;;;;21.27;7.47;;;;;;;12.22;56.41;100092.25;8204220;28;20057;-71
2022/05/10 06:19:28;;;;;;;22.90;7.07;;;;;;;12.30;56.08;100081.84;8203523;28;20427;-72
2022/05/10 06:23:29;;;;;;;17.52;6.22;;;;;;;12.41;56.08;100077.88;8203709;28;20502;-72
2022/05/10 06:27:30;;;;;;;13.35;6.28;;;;;;;12.55;56.23;100073.28;8203637;28;20082;-72
2022/05/10 06:31:31;;;;;;;15.13;5.95;;;;;;;12.70;56.07;100070.28;8203642;28;20063;-71
2022/05/10 06:35:32;;;;;;;14.15;4.95;;;;;;;12.84;55.62;100060.28;8203607;28;20492;-72
2022/05/10 06:39:33;;;;;;;22.25;5.72;;;;;;;13.01;55.62;100060.47;8202799;28;20175;-72
2022/05/10 06:43:38;;;;;;;15.45;5.50;;;;;;;13.21;55.53;100063.91;8202787;28;20578;-71
2022/05/10 06:47:41;;;;;;;13.95;6.13;;;;;;;13.38;54.92;100061.38;8203145;28;20082;-72
2022/05/10 06:51:42;;;;;;;21.65;5.60;;;;;;;13.45;54.78;100059.88;8200738;29;20043;-72
2022/05/10 06:55:43;;;;;;;12.00;5.25;;;;;;;13.61;54.38;100052.19;8202778;28;20484;-72
2022/05/10 06:59:44;;;;;;;21.23;6.10;;;;;;;13.75;54.63;100042.09;8216061;28;20039;-71
2022/05/10 07:03:50;;;;;;;16.25;5.90;;;;;;;13.92;53.85;100036.81;8202599;28;20057;-71
2022/05/10 07:07:51;;;;;;;10.73;5.45;;;;;;;14.10;53.74;100047.78;8202515;28;20078;-72
2022/05/10 07:11:55;;;;;;;15.00;5.25;;;;;;;14.24;53.92;100043.91;8202666;28;20094;-72
2022/05/10 07:15:57;;;;;;;16.98;6.32;;;;;;;14.40;53.49;100036.19;8201722;28;20062;-72
2022/05/10 07:19:57;;;;;;;16.55;5.88;;;;;;;14.46;53.37;100036.84;8215899;28;20051;-72
2022/05/10 07:24:00;;;;;;;17.88;5.78;;;;;;;14.60;53.44;100035.66;8201894;28;20051;-72
2022/05/10 07:28:02;;;;;;;23.92;6.00;;;;;;;14.78;53.81;100037.34;8201986;28;20110;-71
2022/05/10 07:32:03;;;;;;;17.92;6.03;;;;;;;14.91;53.27;100029.41;8202001;28;20059;-73
2022/05/10 07:40:25;;;;;;;17.67;5.68;;;;;;;15.20;52.95;100032.34;8201190;28;20055;-73
2022/05/10 07:44:26;;;;;;;18.48;5.45;;;;;;;15.33;53.06;100020.56;8214975;28;20146;-72
2022/05/10 07:48:27;;;;;;;14.38;6.30;;;;;;;15.52;52.40;100012.91;8214969;28;20502;-72
2022/05/10 07:52:27;;;;;;;13.85;5.40;;;;;;;15.69;52.41;100016.75;8215236;28;20055;-71
2022/05/10 07:56:29;;;;;;;12.02;5.68;;;;;;;15.82;51.61;100013.06;8214666;28;20058;-72
2022/05/10 08:00:30;;;;;;;13.73;5.97;;;;;;;15.90;51.44;100018.53;8200413;28;20050;-72
2022/05/10 08:04:31;;;;;;;14.40;5.45;;;;;;;16.11;51.40;100012.41;8200800;28;20052;-71
2022/05/10 08:08:36;;;;;;;22.35;5.68;;;;;;;16.25;50.76;100005.63;8200759;28;20066;-72
2022/05/10 08:12:38;;;;;;;10.90;4.82;;;;;;;16.37;50.04;100004.97;8200158;28;20055;-72
2022/05/10 08:16:39;;;;;;;19.42;5.10;;;;;;;16.51;50.00;100010.22;8214603;28;20182;-72
2022/05/10 08:20:41;;;;;;;16.10;5.68;;;;;;;16.75;50.19;100015.94;8200300;28;20518;-72
2022/05/10 08:24:42;;;;;;;14.73;4.82;;;;;;;16.97;49.79;100018.41;8200097;28;20252;-72
2022/05/10 08:28:43;;;;;;;17.25;5.35;;;;;;;17.10;49.48;100022.81;8209927;28;20056;-72
2022/05/10 08:32:44;;;;;;;14.20;5.15;;;;;;;17.25;49.21;100011.31;8170023;29;20047;-73
2022/05/10 08:36:46;;;;;;;19.00;4.72;;;;;;;17.44;48.65;100026.47;8175306;29;20050;-72
2022/05/10 08:40:53;;;;;;;12.85;4.40;;;;;;;17.61;47.72;100012.72;8177463;28;20074;-72
2022/05/10 08:44:58;;;;;;;14.50;4.05;;;;;;;17.80;47.48;100013.06;8167438;29;20043;-71
2022/05/10 08:49:12;;;;;;;11.50;4.20;;;;;;;17.96;47.22;100008.56;8169928;29;20052;-71
2022/05/10 08:53:15;;;;;;;10.38;4.20;;;;;;;18.08;46.55;99997.66;8184641;28;20515;-72
2022/05/10 08:57:16;;;;;;;8.95;3.72;;;;;;;18.20;46.07;99993.38;8184918;28;20040;-72
2022/05/10 09:01:22;;;;;;;15.43;4.53;;;;;;;18.41;46.03;99988.63;8177430;28;20056;-72
2022/05/10 09:05:25;;;;;;;9.95;3.67;;;;;;;18.59;45.31;99987.34;8172410;29;20075;-72
2022/05/10 09:09:33;;;;;;;10.77;3.90;;;;;;;18.73;44.84;99985.06;8198148;28;20483;-72
2022/05/10 09:13:36;;;;;;;9.50;3.90;;;;;;;18.84;44.80;99980.72;8211981;28;20550;-71
2022/05/10 09:17:37;;;;;;;9.10;3.40;;;;;;;18.93;43.70;99989.59;8192517;28;20061;-72
2022/05/10 09:21:47;;;;;;;6.80;3.35;;;;;;;19.13;42.63;99981.63;8212461;28;20058;-72
2022/05/10 09:25:49;;;;;;;14.10;3.60;;;;;;;19.22;42.62;99974.09;8174795;29;20599;-72
2022/05/10 09:29:52;;;;;;;12.10;3.85;;;;;;;19.37;42.61;99970.63;8180150;29;20043;-71
2022/05/10 09:38:30;;;;;;;11.85;3.80;;;;;;;19.59;40.83;99956.44;8194381;28;20081;-72
2022/05/10 09:42:41;;;;;;;11.60;4.00;;;;;;;19.71;39.92;99964.63;8198073;28;20488;-72
2022/05/10 09:46:42;;;;;;;12.35;3.05;;;;;;;19.89;41.00;99953.34;8172492;29;20050;-72
2022/05/10 09:50:49;;;;;;;11.73;4.05;;;;;;;19.87;39.92;99944.69;8197514;28;20051;-72
2022/05/10 09:54:52;;;;;;;7.32;3.17;;;;;;;20.05;40.21;99943.19;8186095;28;20075;-71
2022/05/10 09:59:24;;;;;;;9.57;3.20;;;;;;;20.14;40.61;99943.84;8192653;28;20498;-72
2022/05/10 10:03:29;;;;;;;12.40;3.70;;;;;;;20.09;40.28;99930.41;8194759;28;20137;-74
2022/05/10 10:07:31;;;;;;;11.38;3.95;;;;;;;20.16;40.94;99925.09;8199677;28;20051;-74
2022/05/10 10:11:39;;;;;;;21.40;4.20;;;;;;;20.35;40.63;99922.50;8167551;28;20054;-73
2022/05/10 10:15:42;;;;;;;10.60;3.58;;;;;;;20.40;40.08;99908.50;8198412;28;20515;-73
2022/05/10 10:19:47;;;;;;;11.15;4.30;;;;;;;20.58;40.28;99909.72;8182033;29;20518;-73
2022/05/10 10:23:52;;;;;;;8.65;4.00;;;;;;;20.48;39.77;99904.78;8135149;29;20477;-72
2022/05/10 10:28:26;;;;;;;7.28;3.70;;;;;;;20.70;40.07;99899.78;8127145;29;20040;-72
2022/05/10 10:32:35;;;;;;;8.50;3.47;;;;;;;21.01;39.94;99899.72;8114859;29;20423;-73
2022/05/10 10:37:00;;;;;;;12.93;3.60;;;;;;;21.13;38.94;99891.34;8100064;29;20116;-72
2022/05/10 10:41:08;;;;;;;7.32;3.10;;;;;;;21.23;37.94;99896.31;8071900;29;20135;-72
2022/05/10 10:45:13;;;;;;;8.67;3.87;;;;;;;21.35;38.38;99892.63;8074353;29;20607;-72
2022/05/10 10:49:18;;;;;;;9.75;3.53;;;;;;;21.32;37.92;99877.66;8074088;29;20048;-72
2022/05/10 10:53:22;;;;;;;10.00;3.45;;;;;;;21.41;37.68;99880.97;8073105;29;20462;-72
2022/05/10 10:57:48;;;;;;;10.07;3.80;;;;;;;21.59;35.99;99880.53;8058525;29;20085;-72
2022/05/10 11:02:10;;;;;;;10.25;3.50;;;;;;;21.66;36.92;99864.19;8099931;29;20093;-72
2022/05/10 11:06:20;;;;;;;8.65;2.97;;;;;;;21.80;37.49;99853.44;8104667;29;20097;-72
2022/05/10 11:10:39;;;;;;;10.32;3.42;;;;;;;21.94;36.81;99848.25;8104391;29;20064;-72
2022/05/10 11:15:22;;;;;;;12.43;4.20;;;;;;;21.97;34.32;99844.75;8104265;29;20052;-72
2022/05/10 11:19:50;;;;;;;8.77;3.15;;;;;;;22.12;35.43;99832.03;8197667;28;20076;-72
2022/05/10 11:24:41;;;;;;;7.60;3.97;;;;;;;22.30;35.47;99828.41;8214119;28;20055;-72
2022/05/10 11:28:57;;;;;;;11.52;3.40;;;;;;;22.35;35.58;99818.25;8134921;29;20135;-71
2022/05/10 11:33:26;;;;;;;10.90;3.05;;;;;;;22.51;35.96;99821.63;8120322;29;20152;-72
2022/05/10 11:37:40;;;;;;;8.67;3.87;;;;;;;22.59;35.51;99818.59;8087647;29;20769;-73
2022/05/10 11:42:05;;;;;;;8.88;3.60;;;;;;;22.76;36.12;99811.00;8103330;29;20044;-72
2022/05/10 11:46:41;;;;;;;7.82;3.53;;;;;;;22.91;35.86;99807.25;8103374;29;20048;-73
2022/05/10 11:55:11;;;;;;;8.60;3.35;;;;;;;22.95;35.23;99792.34;8134054;29;20139;-72
2022/05/10 11:59:14;;;;;;;16.67;3.50;;;;;;;23.17;34.73;99788.69;8133869;29;20076;-73
2022/05/10 12:03:43;;;;;;;12.23;3.92;;;;;;;23.30;34.91;99774.66;8168001;29;20050;-73
2022/05/10 12:07:45;;;;;;;10.60;3.27;;;;;;;23.27;31.58;99776.19;8200987;28;20050;-72
2022/05/10 12:11:45;;;;;;;9.88;3.00;;;;;;;23.19;31.42;99774.53;8213924;28;20122;-72
2022/05/10 12:24:34;;;;;;;7.13;2.78;;;;;;;23.42;30.24;99755.88;8198968;28;20138;-72
2022/05/10 12:28:40;;;;;;;8.05;3.20;;;;;;;23.20;29.89;99756.06;8192354;29;20051;-73
2022/05/10 12:32:43;;;;;;;9.40;3.08;;;;;;;23.41;30.41;99754.31;8200171;28;20521;-72
2022/05/10 12:36:45;;;;;;;12.18;3.22;;;;;;;23.64;31.39;99740.34;8199726;28;20555;-72
2022/05/10 12:41:01;;;;;;;8.77;3.15;;;;;;;23.71;30.99;99745.94;8199740;28;20051;-72
2022/05/10 12:45:33;;;;;;;10.80;3.20;;;;;;;23.78;30.51;99734.97;8199952;28;20105;-72
2022/05/10 12:49:53;;;;;;;8.18;2.95;;;;;;;23.78;30.74;99729.47;8200899;28;20047;-72
2022/05/10 12:53:59;;;;;;;11.93;3.08;;;;;;;23.82;31.58;99722.00;8199557;28;20055;-72
2022/05/10 12:58:06;;;;;;;9.45;3.00;;;;;;;23.91;31.54;99722.47;8209872;28;20047;-73
2022/05/10 13:02:09;;;;;;;8.52;2.85;;;;;;;24.05;31.23;99716.28;8199156;28;20055;-72
2022/05/10 13:06:48;;;;;;;14.38;3.25;;;;;;;23.96;29.82;99707.53;8199883;28;20051;-73
2022/05/10 13:10:49;;;;;;;8.18;2.83;;;;;;;24.18;30.51;99702.97;8210214;28;20058;-72
2022/05/10 13:14:57;;;;;;;11.60;3.13;;;;;;;24.29;30.50;99687.25;8190476;28;20051;-72
2022/05/10 13:18:59;;;;;;;9.68;3.08;;;;;;;24.32;31.72;99680.97;8205436;29;20113;-73
2022/05/10 13:23:02;;;;;;;8.30;2.97;;;;;;;24.37;30.60;99669.56;8206216;28;20048;-72
2022/05/10 13:27:04;;;;;;;9.20;2.88;;;;;;;24.94;30.34;99672.56;8206028;28;20110;-72
2022/05/10 13:31:18;;;;;;;6.22;3.30;;;;;;;26.45;27.89;99666.16;8205504;28;20172;-73
2022/05/10 13:35:24;;;;;;;9.52;3.15;;;;;;;27.95;26.56;99652.88;8205931;28;20073;-73
2022/05/10 13:39:28;;;;;;;8.20;2.70;;;;;;;29.31;25.32;99638.81;8205382;28;20057;-73
2022/05/10 13:43:47;;;;;;;8.80;2.80;;;;;;;30.03;24.51;99644.78;8203142;28;20047;-73
2022/05/10 13:47:52;;;;;;;;;;;;;;;30.90;24.10;99641.38;8203574;28;20499;-73
2022/05/10 13:51:55;;;;;;;12.05;3.25;;;;;;;31.90;23.15;99633.38;8190164;29;19958;-74
2022/05/10 13:55:57;;;;;;;10.38;3.05;;;;;;;31.51;22.93;99639.97;8203571;28;20047;-74
2022/05/10 14:00:27;;;;;;;11.65;3.30;;;;;;;32.61;22.14;99626.59;8204457;28;20522;-73
2022/05/10 14:04:37;;;;;;;9.63;3.13;;;;;;;33.76;21.13;99620.50;8202639;28;20121;-73
2022/05/10 14:08:42;;;;;;;10.73;3.10;;;;;;;34.33;19.30;99612.84;8196806;28;20615;-73
2022/05/10 14:12:52;;;;;;;8.75;2.95;;;;;;;35.18;19.17;99603.94;8214630;28;20181;-73
2022/05/10 14:16:55;;;;;;;13.88;2.95;;;;;;;35.69;19.71;99609.03;8200450;28;20050;-73
2022/05/10 14:21:02;;;;;;;6.82;3.00;;;;;;;36.50;18.41;99598.97;8211491;28;20043;-73
2022/05/10 14:25:03;;;;;;;6.85;2.88;;;;;;;36.44;18.99;99583.97;8189125;28;20087;-72
2022/05/10 14:29:20;;;;;;;10.18;5.18;;;;;;;36.64;18.65;99587.06;8210567;28;20054;-74
2022/05/10 14:33:43;;;;;;;11.80;3.03;;;;;;;36.88;17.89;99582.28;8228455;28;20049;-73
2022/05/10 14:37:49;;;;;;;28.45;4.90;;;;;;;35.98;18.79;99575.59;8204709;28;20054;-74
2022/05/10 14:41:50;;;;;;;9.38;3.45;;;;;;;36.32;18.50;99561.22;8222346;28;20424;-72
2022/05/10 14:45:52;;;;;;;11.90;3.53;;;;;;;36.99;17.97;99557.19;8204302;28;20110;-74
2022/05/10 14:49:52;;;;;;;11.07;3.00;;;;;;;37.47;17.41;99554.41;8202062;29;20385;-73
2022/05/10 14:53:54;;;;;;;7.80;2.78;;;;;;;36.24;18.45;99548.72;8213838;28;20047;-73
2022/05/10 14:57:58;;;;;;;7.18;3.00;;;;;;;33.51;20.91;99550.53;8235150;28;20045;-74
2022/05/10 15:02:28;;;;;;;7.68;3.17;;;;;;;33.59;21.33;99543.44;8216462;28;20051;-74
2022/05/10 15:06:30;;;;;;;19.03;4.10;;;;;;;33.81;21.25;99521.88;8217443;28;20228;-73
2022/05/10 15:10:31;;;;;;;12.73;4.38;;;;;;;34.82;20.65;99525.22;8175522;29;20097;-71
2022/05/10 15:14:32;;;;;;;13.93;4.50;;;;;;;34.08;20.51;99523.28;8175793;29;20135;-71
2022/05/10 15:22:56;;;;;;;31.30;6.13;;;;;;;31.77;23.41;99499.28;8180015;28;20043;-72
2022/05/10 15:26:58;;;;;;;16.17;3.92;;;;;;;29.89;24.93;99494.66;8201382;28;20073;-72
2022/05/10 15:30:59;;;;;;;9.00;2.90;;;;;;;29.29;25.46;99493.84;8203503;28;20078;-71
2022/05/10 15:35:03;;;;;;;27.63;11.80;;;;;;;28.55;26.47;99481.94;8215520;28;20055;-71
2022/05/10 15:39:04;;;;;;;15.35;8.02;;;;;;;28.38;26.71;99483.00;8246966;28;20067;-71
2022/05/10 15:43:05;;;;;;;38.25;9.30;;;;;;;29.31;25.63;99478.31;8207381;28;20447;-71
2022/05/10 15:47:06;;;;;;;8.70;4.00;;;;;;;30.26;25.10;99474.78;8201526;28;20126;-72
2022/05/10 15:51:08;;;;;;;9.80;3.65;;;;;;;30.13;25.53;99482.25;8205753;28;20411;-71
2022/05/10 15:55:09;;;;;;;14.32;3.60;;;;;;;29.21;26.86;99472.91;8216316;28;20043;-72
2022/05/10 15:59:10;;;;;;;22.42;3.55;;;;;;;28.73;27.33;99471.34;8200036;28;20043;-70
2022/05/10 16:03:11;;;;;;;14.52;3.00;;;;;;;28.85;27.43;99461.63;8201697;28;20044;-70
2022/05/10 16:07:15;;;;;;;12.10;3.70;;;;;;;28.42;27.73;99465.06;8221955;28;20411;-70
2022/05/10 16:11:16;;;;;;;9.75;3.30;;;;;;;27.39;28.99;99453.69;8200755;28;20126;-71
2022/05/10 16:15:17;;;;;;;8.50;3.28;;;;;;;27.30;28.91;99449.41;8218191;28;20567;-71
2022/05/10 16:19:18;;;;;;;8.70;2.70;;;;;;;26.85;29.39;99445.09;8214656;28;20076;-71
2022/05/10 16:23:20;;;;;;;14.60;3.30;;;;;;;26.53;30.19;99441.81;8201470;28;20058;-71
2022/05/10 16:31:41;;;;;;;9.65;2.72;;;;;;;25.79;31.35;99440.25;8200295;29;20054;-70
2022/05/10 16:35:42;;;;;;;8.13;3.08;;;;;;;25.39;32.17;99439.59;8214419;28;20046;-71
2022/05/10 16:39:43;;;;;;;8.18;3.03;;;;;;;25.09;32.88;99430.97;8213348;28;20071;-71
2022/05/10 16:43:44;;;;;;;7.80;3.17;;;;;;;24.90;33.88;99432.22;8201896;28;20373;-70
2022/05/10 16:47:45;;;;;;;8.25;3.13;;;;;;;24.87;34.45;99434.91;8200252;28;20043;-70
2022/05/10 16:51:49;;;;;;;7.88;3.08;;;;;;;24.65;34.60;99423.88;8183462;28;20439;-70
2022/05/10 16:55:50;;;;;;;6.38;2.80;;;;;;;24.48;35.39;99419.16;8213970;28;20059;-71
2022/05/10 16:59:51;;;;;;;9.32;3.30;;;;;;;24.35;35.75;99420.72;8202817;28;20443;-71
2022/05/10 17:03:53;;;;;;;18.13;3.92;;;;;;;24.20;36.54;99419.16;8215347;28;20054;-71
2022/05/10 17:07:54;;;;;;;21.30;3.58;;;;;;;24.10;37.21;99414.38;8206096;28;20117;-70
2022/05/10 17:11:55;;;;;;;9.60;3.25;;;;;;;24.06;37.19;99419.09;8227278;28;20047;-70
2022/05/10 17:15:56;;;;;;;12.63;3.35;;;;;;;23.92;37.82;99415.13;8199774;28;20062;-72
2022/05/10 17:19:57;;;;;;;15.18;3.50;;;;;;;23.65;38.51;99411.09;8200199;28;20051;-71
2022/05/10 17:23:59;;;;;;;8.70;3.20;;;;;;;23.40;39.39;99415.69;8194208;28;20496;-71
2022/05/10 17:32:13;;;;;;;13.55;6.32;;;;;;;22.85;41.03;99407.47;8173880;29;20055;-73
2022/05/10 17:36:15;;;;;;;22.65;13.80;;;;;;;22.57;41.67;99401.75;8170270;28;20094;-75
2022/05/10 17:40:16;;;;;;;22.55;12.68;;;;;;;22.30;43.20;99410.19;8196651;28;20138;-76
2022/05/10 17:44:17;;;;;;;20.08;10.07;;;;;;;22.07;44.19;99401.31;8194080;28;20055;-75
2022/05/10 17:48:18;;;;;;;14.20;5.88;;;;;;;21.88;44.92;99404.22;8167958;28;20051;-75
2022/05/10 17:52:19;;;;;;;16.08;6.50;;;;;;;21.58;45.91;99395.22;8212136;28;20062;-75
2022/05/10 17:56:22;;;;;;;14.18;6.05;;;;;;;21.30;46.89;99403.94;8180686;28;20067;-75
2022/05/10 18:00:25;;;;;;;12.48;5.80;;;;;;;21.03;47.79;99400.41;8174123;29;20051;-76
2022/05/10 18:04:27;;;;;;;12.93;5.75;;;;;;;20.76;48.34;99405.09;8191424;28;20102;-74
2022/05/10 18:08:28;;;;;;;11.98;5.85;;;;;;;20.50;48.59;99403.13;8212802;28;20054;-73
2022/05/10 18:12:31;;;;;;;10.32;5.95;;;;;;;20.30;49.23;99401.59;8220197;28;20173;-73
2022/05/10 18:16:32;;;;;;;21.77;11.10;;;;;;;20.10;49.61;99405.53;8205412;28;20456;-72
2022/05/10 18:20:34;;;;;;;17.75;11.07;;;;;;;19.91;50.33;99408.31;8205282;28;20055;-73
2022/05/10 18:24:35;;;;;;;13.73;7.45;;;;;;;19.73;50.90;99403.28;8205490;28;20051;-73
2022/05/10 18:28:36;;;;;;;11.43;6.35;;;;;;;19.48;52.15;99402.00;8205052;28;20491;-72
2022/05/10 18:32:38;;;;;;;13.93;6.22;;;;;;;19.26;52.37;99405.41;8204917;28;20054;-73
2022/05/10 18:36:39;;;;;;;12.38;7.07;;;;;;;19.05;52.58;99410.44;8204153;28;20059;-72
2022/05/10 18:40:42;;;;;;;15.15;7.28;;;;;;;18.90;52.88;99410.13;8202724;28;20075;-73
2022/05/10 18:44:44;;;;;;;14.15;7.32;;;;;;;18.81;53.40;99401.31;8203462;28;20048;-72
2022/05/10 18:48:45;;;;;;;13.75;7.93;;;;;;;18.73;53.26;99405.03;8212627;28;20487;-73
2022/05/10 18:52:46;;;;;;;14.70;7.32;;;;;;;18.60;53.66;99400.03;8202777;28;20098;-72
2022/05/10 18:56:47;;;;;;;18.15;7.97;;;;;;;18.41;53.66;99403.44;8211879;28;20047;-73
2022/05/10 19:00:48;;;;;;;15.02;8.05;;;;;;;18.27;54.00;99403.06;8205832;28;20085;-72
2022/05/10 19:04:49;;;;;;;19.00;8.55;;;;;;;18.21;54.02;99409.94;8209065;28;20134;-72
2022/05/10 19:08:50;;;;;;;17.45;7.45;;;;;;;18.14;54.43;99405.88;8176542;28;20487;-72
2022/05/10 19:12:52;;;;;;;17.08;7.82;;;;;;;18.09;54.52;99414.34;8193543;28;20053;-72
2022/05/10 19:16:53;;;;;;;21.60;9.73;;;;;;;18.03;54.24;99414.97;8217710;28;20044;-72
2022/05/10 19:20:54;;;;;;;22.55;11.32;;;;;;;17.92;54.26;99409.22;8180508;28;20055;-73
2022/05/10 19:24:56;;;;;;;24.63;10.13;;;;;;;17.85;54.23;99409.03;8190091;28;20051;-72
2022/05/10 19:28:57;;;;;;;14.93;7.30;;;;;;;17.76;54.60;99411.13;8185406;28;20055;-73
2022/05/10 19:32:59;;;;;;;19.52;8.20;;;;;;;17.68;54.41;99412.06;8161888;28;20075;-72
2022/05/10 19:37:00;;;;;;;24.40;11.75;;;;;;;17.60;54.33;99408.34;8196602;28;20071;-72
2022/05/10 19:41:13;;;;;;;22.08;9.43;;;;;;;17.50;54.17;99410.75;8181200;28;20515;-72